Zapata, Texas
Current Conditions -  °F | °C
As of 4:55 PM on Thursday 18 Dec 2014 (Local Time) from KAPY Reporting Station
Haze Haze  
Wind Chill: 60°   Ceiling: 300
Heat Index: 60°   Visibility: 5mi
Dew Point: 60°   Wind: 5mph
Humidity: 100%   Direction: 340°NNW
Pressure: 29.98"   Gusts: NA
Location:  26.91°N, 99.27°W
Report Text: KAPY 182255Z AUTO 34004KT 5SM BR OVC003 15/15 A2998 RMK AO2 T01560156
Loading
Personal Weather Stations






























Interactive Weather Map New forecast layout! Learn more

10-Day Weather Forecast

Advertisements
Track Severe Weather on mobile